EDT,Max TemperatureF,Mean TemperatureF,Min TemperatureF,Max Dew PointF,MeanDew PointF,Min DewpointF,Max Humidity, Mean Humidity, Min Humidity, Max Sea Level PressureIn, Mean Sea Level PressureIn, Min Sea Level PressureIn, Max VisibilityMiles, Mean VisibilityMiles, Min VisibilityMiles, Max Wind SpeedMPH, Mean Wind SpeedMPH, Max Gust SpeedMPH,PrecipitationIn, CloudCover, Events, WindDirDegrees
2012-10-1,66,55,44,63,60,45,100,88,84,29.88,29.81,29.75,10,5,2,16,7,20,1.58,8,Rain-Thunderstorm,63
2012-10-2,79,71,64,66,63,60,94,75,54,29.98,29.81,29.73,10,7,1,8,5,,0.66,7,Rain,186
2012-10-3,75,68,64,62,61,59,87,75,59,30.21,30.10,29.99,10,10,7,6,3,,0.00,1,Rain,244
2012-10-4,82,72,62,63,59,54,90,70,38,30.26,30.22,30.17,10,9,6,6,2,,0.00,0,,245
2012-10-5,81,70,59,61,57,54,90,65,40,30.21,30.13,30.03,10,10,3,6,2,,0.01,0,Rain,325
2012-10-6,84,71,60,62,58,54,88,71,46,30.04,29.97,29.89,10,8,0,13,3,17,0.00,1,Fog,251
2012-10-7,73,66,59,61,58,46,88,76,59,30.11,30.01,29.94,10,10,6,10,3,,0.00,7,Rain-Thunderstorm,62
2012-10-8,57,55,53,49,44,39,77,67,54,30.19,30.15,30.10,10,10,10,13,8,18,0.00,8,,61
2012-10-9,61,56,51,48,46,45,86,75,56,30.20,30.15,30.10,10,10,9,5,2,,0.00,6,,97
2012-10-10,75,60,48,51,48,44,87,68,42,30.15,30.11,30.06,10,10,8,20,6,30,0.01,1,,261
2012-10-11,71,59,48,54,47,43,89,71,41,30.31,30.23,30.15,10,8,0,7,2,,0.00,0,Fog,19
2012-10-12,77,65,53,60,53,48,94,78,45,30.28,30.22,30.18,10,6,0,6,1,,0.00,3,Fog,44
2012-10-13,68,62,57,54,47,44,72,59,43,30.45,30.35,30.28,10,10,10,12,5,17,0.00,4,,50
2012-10-14,71,64,57,60,54,47,87,70,60,30.31,30.20,30.04,10,10,9,7,1,,0.00,6,,10
2012-10-15,79,69,60,64,56,40,88,70,30,30.04,29.92,29.81,10,8,2,16,5,23,0.22,5,Rain,253
2012-10-16,72,60,48,51,45,41,89,63,35,29.99,29.94,29.88,10,9,0,8,3,,0.00,0,Fog,315
2012-10-17,73,62,51,53,49,46,89,75,38,30.00,29.94,29.88,10,7,0,7,2,,0.00,1,Fog,21
2012-10-18,63,58,52,57,51,46,88,81,77,29.92,29.88,29.85,10,10,6,5,1,,0.01,6,Rain,13
2012-10-19,,,,,,,,,,,,,,,,,,,,,,
2012-10-20,,,,,,,,,,,,,,,,,,,,,,
2012-10-21,,,,,,,,,,,,,,,,,,,,,,
2012-10-22,,,,,,,,,,,,,,,,,,,,,,
2012-10-23,,,,,,,,,,,,,,,,,,,,,,
2012-10-24,81,70,61,55,50,47,75,51,32,30.13,30.11,30.09,10,10,10,6,3,,0.00,0,,358
2012-10-25,80,67,55,59,55,51,87,67,45,30.16,30.11,30.07,10,10,10,5,2,,0.00,2,,15
2012-10-26,82,72,62,59,56,53,84,62,39,30.09,30.01,29.94,10,10,10,8,3,,0.00,2,,45
2012-10-27,78,70,61,57,54,51,75,62,45,29.94,29.81,29.72,10,10,10,12,5,,0.00,1,,30
2012-10-28,72,62,48,54,47,34,83,65,44,29.77,29.73,29.70,10,10,10,12,4,22,0.03,4,Rain,330
2012-10-29,61,53,45,34,31,26,63,48,31,29.76,29.71,29.65,10,10,10,20,10,39,0.00,1,,300
2012-10-30,52,48,46,29,27,24,46,43,41,29.74,29.62,29.55,10,10,10,23,15,33,0.00,3,,282
2012-10-31,64,54,44,29,22,11,47,32,13,29.83,29.77,29.73,10,10,10,23,10,29,0.00,0,,262